Airfield :
LOGIN :

Register | Disclaimer

   EN    FR    IT 

 










Legend :    VFR   Marginal VFR   IFR   Intensive IFR   Very Intensive IFR
Visi :
Ceiling :
>= 8 km
>= 3000ft
5 to 8 km
1000 to 3000 ft
1500m to 5 km
500 to 1000 ft
800 to 1500m
200 to 500 ft
< 800m
< 200 ft
Symbols :   Thunderstorms  Fog  Heavy snow  Heavy precipitations  Wind > 20 kt
SIGMETs :     Misc.  Thunderstorms  Icing  Turbulence  Mountain Waves  Volcanic Ashes






- Airport Elevation : 1036 ft
- IATA code : ERF


EDDE - Erfurt

CURRENT METAR :
  • 021350Z AUTO 26012KT 9999 FEW007 02/01 Q1021 NOSIG

EXPIRED METARs :
  • 021320Z AUTO 26013KT 9999 FEW008 02/01 Q1020
  • 021250Z AUTO 26015KT 9999 FEW006 02/01 Q1020 BECMG 23008KT
  • 021220Z AUTO 27016KT 9999 SCT006 02/01 Q1020 NOSIG
  • 021150Z AUTO 26014KT 9999 SCT005 BKN043 02/01 Q1020
  • 021120Z AUTO 25017KT 9999 -DZ FEW003 BKN040 BKN049 01/01 Q1020 NOSIG
  • 021050Z AUTO 25014KT 9999 -RADZ FEW004 01/01 Q1020

TAF AMD TAF EDDE
Valid from the 02 at 12:00 until the 03 at 12:00 UTC


021240Z 0212/0312 25015KT 9999 BKN020
BECMG 0212/0215 23008KT
TEMPO 0212/0221 4000 -DZRA BKN004
BECMG 0214/0217 BKN012
PROB40
TEMPO 0219/0222 1200 DZRA
BECMG 0221/0223 4500 DZRA
BECMG 0302/0304 26015KT 9999 NSW BKN025
TEMPO 0304/0307 3500 DZ BKN013
BECMG 0306/0308 25020G35KT
TEMPO 0310/0311 26025G40KT 4000 -RADZ



MET'MAP, your aeronautical weather chart ! - Copyright ORBIFLY December 2007 - Disclaimer

ORBIFLY MET'MAP TEAM :

Programming & Development : Alexandra Zaïnal
Original concept : Baudouin d'Aumeries
Technical & hardware support : Manuel Goepfert
Assistance : Marc-Olivier Méhu




SOURCES & CREDITS :

   NOAA